Enter the Airport ICAO Code

Search by Airport or City

Current Weather

GCTS | Tenerife-South Airport (Reina Sofia Airport)

Tenerife, Canary Islands, Spain

Last Update 22 Minutes Ago

Mostly Cloudy Sky

Temperature of 25 ēC

Strong Winds from East

Temperature

25 ēC

Dew Point Temperature

11 ēC

Relative Humidity

41.65 %

Wind Direction

East (080ē, Without Significant Variations)

Wind Velocity

39 km/h (21 kt)

Gusts

None

Visibility

Greater than 10 Kilometers

Sea Level Pressure

1021 hPa (Hectopascals)

Layers of Clouds

60% to 90% of Sky Covered from 1524 mts (5000 ft) Above Ground Level.

METAR GCTS 191230Z 08021KT 9999 BKN050 25/11 Q1021 NOSIG

Weather Forecast

GCTS | Tenerife-South Airport (Reina Sofia Airport)

Tenerife, Canary Islands, Spain

Forecast valid for the next 20 Hours

From now on it is expected:

Strong Winds from East

From now on it is expected 5 hours with intermittent periods of:

Moderate to Strong Winds from East with Gusts

In 6 to 9 hours it is expected the begining of:

Light to Moderate Winds from NorthEast

Maximum Temperature

24 ēC in 1 Hour

Minimum Temperature

18 ēC in 17 Hours

TAF GCTS 190800Z 1909/2009 07012KT 9999 SCT030 TX24/1914Z TN18/2006Z BECMG 1909/1912 09022KT PROB30 TEMPO 1912/1918 09020G30KT BECMG 1919/1922 04009KT